Etusivu
METAR-TAF:

METAR-TAF

Lentoasemat :

Bromman lentoasema

Tukholma, Ruotsi

Leveyspiiri: 59-21N, Pituuspiiri: 017-57E, korkeus merenpinnasta: 14 m

Tämänhetkinen sää

Tämä raportti tehtiin 44 minuuttia sitten, kello 13.50 UTC
Tuuli 9 kn idästä
Lämpötila 6°C
Kosteus 93%
Ilmanpaine 1025 hPa
Näkyvyys: 6000 m
Hajonneita pilviä 500 ft:n korkeudessa

METAR: ESSB 211350Z 10009KT 6000 BKN005 06/05 Q1025 R12/29//95

Aika: 15:34 (14:34 UTC)

Sääennuste

Tämä raportti tehtiin 3 tuntia ja 4 minuuttia sitten, kello 11.30 UTC
Ennuste voimassa 21. päivästä klo 12 UTC - 21. päivään klo 21 UTC
Tuuli 12 kn idästä/kaakosta
Näkyvyys: 8000 m
Hajonneita pilviä 1000 ft:n korkeudessa
Ajoittain
21. päivästä klo 12 UTC - 21. päivään klo 21 UTC
Näkyvyys: 2500 m
Hajonneita pilviä 400 ft:n korkeudessa
tihkusadetta, utua

TAF: ESSB 211130Z 2112/2121 11012KT 8000 BKN010 TEMPO 2112/2121 2500 DZ BR BKN004

Säähavainnot ja -ennusteet yli 4000 lentoasemalta (METAR- ja TAF-raportit).

Käytössä olevat sääasemat on merkitty karttaan keltaisilla ja punaisilla pisteillä.

Aseta hiiri pisteen päälle nähdäksesi sääaseman nimen.

Klikkaa sitten nähdäksesi säähavainnot ja -ennusteet.

Kartan vaihtaminen: klikkaa mustalla rastilla varustettuja vihreitä pisteitä, niin voit zoomata sisään; viivalla varustettua vihreää pistettä, niin voit zoomata ulos tai vihreitä nuolia, niin pääset viereisille kartoille.


METAR-TAF: